Laurent Verva

Laurent Verva

Statistiques 2026

  • Courses courues : 42
  • Nb de victoires : -
  • Nb de places : 1
  • Écart gagnant : 143
  • Réussite à la gagne : -
  • Réussite à la place : 2%
Musique : 0a 8a 4a 6a 6a 0a 5a 5a Da 2a 9a 6a 5a Da 6a 0a 7a 4a
DateRangCatégorieAlloc.Dist.HippodromeChevalRed. KmSpé.
19/11/18 2 Trot 45 000€ 2 700m Vincennes Diego du Houlet 1'14"6 Attelé lire

Un des animateurs, a très bien tenu sa partie dans la phase finale.

15/11/18 0 Trot 22 000€ 2 600m Reims Flamme Mencourt Attelé
15/11/18 0 Trot 19 000€ 2 600m Reims Ercule de Navary Attelé
15/11/18 6 Trot 22 000€ 2 600m Reims Fire Bird 1'17"4 Attelé
13/11/18 7 Trot 36 000€ 2 200m Vincennes Geisha d'Arbaz 1'18"5 Attelé lire

Une des animatrices, a cédé dans le tournant final.

12/11/18 D Trot 14 000€ 2 700m Le Croise Laroche Filou d'Avesnes Attelé
12/11/18 D Trot 13 000€ 2 700m Le Croise Laroche Fleur du Ramierou Attelé
12/11/18 2 Trot 13 000€ 2 700m Le Croise Laroche For Ever Mencourt 1'17"8 Attelé
12/11/18 6 Trot 20 000€ 2 700m Le Croise Laroche Banana Peel 1'16"0 Attelé
12/11/18 1 Trot 40 000€ 2 800m Le Croise Laroche Eros In Love 1'14"6 Attelé
12/11/18 7 Trot 25 000€ 2 700m Le Croise Laroche Ben de Torvic 1'15"4 Attelé
11/11/18 2 Trot 15 000€ 2 700m La Capelle Ethano de Bouteau Attelé
11/11/18 6 Trot 15 000€ 2 700m La Capelle Fiston d'hertals 1'19"1 Attelé
11/11/18 6 Trot 15 000€ 2 000m La Capelle Ganador Del Amor 1'20"3 Attelé
02/11/18 5 Trot 17 000€ 2 700m Le Croise Laroche Fire Bird 1'16"3 Attelé
02/11/18 3 Trot 20 000€ 2 825m Le Croise Laroche Elisee du Pont 1'16"9 Attelé
02/11/18 7 Trot 22 000€ 2 825m Le Croise Laroche Felix du Bourg 1'17"6 Attelé
02/11/18 3 Trot 20 000€ 2 700m Le Croise Laroche Cannelle d'As 1'16"3 Attelé
02/11/18 5 Trot 20 000€ 2 700m Le Croise Laroche Cyrus d'Alci 1'15"3 Attelé
02/11/18 4 Trot 40 000€ 2 825m Le Croise Laroche Diego du Houlet 1'15"7 Attelé
01/11/18 5 Trot 13 000€ 2 725m Lisieux Filae des Salines 1'20"8 Attelé
01/11/18 D Trot 13 000€ 2 725m Lisieux Factory Attelé
31/10/18 3 Trot 20 000€ 2 600m Reims Filea de la Besvre 1'16"7 Attelé
31/10/18 7 Trot 19 000€ 2 600m Reims Etoile Dubonheur 1'16"6 Attelé
31/10/18 1 Trot 20 000€ 2 600m Reims Ercule de Navary 1'15"8 Attelé
29/10/18 5 Trot 14 000€ 2 700m Le Croise Laroche Farca Sly 1'18"4 Attelé
29/10/18 4 Trot 20 000€ 2 850m Le Croise Laroche Eros In Love 1'15"4 Attelé
29/10/18 9 Trot 17 000€ 2 825m Le Croise Laroche Charlotte Maza 1'16"9 Attelé
29/10/18 D Trot 25 000€ 2 850m Le Croise Laroche Altesse d'Ardennes Attelé
28/10/18 0 Trot 15 000€ 2 700m La Capelle Falco d'Alci Attelé
28/10/18 9 Trot 13 000€ 2 700m La Capelle Edwina d'Arc 1'19"6 Attelé
28/10/18 1 Trot 13 000€ 2 700m La Capelle Epona des Neuzy 1'18"0 Attelé
28/10/18 D Trot 22 000€ 2 775m La Capelle Deauvilla Attelé
28/10/18 4 Trot 13 000€ 2 750m La Capelle For Ever Mencourt 1'18"6 Attelé
27/10/18 7 Trot 16 000€ 2 400m Amiens Felinara 1'18"2 Attelé
27/10/18 D Trot 15 000€ 2 400m Amiens Enora Paulo Attelé
27/10/18 1 Trot 16 000€ 2 900m Amiens Dauphine d'Alci 1'17"2 Attelé
25/10/18 D Trot 20 000€ 2 750m Cabourg Flamme Mencourt Attelé
25/10/18 7 Trot 30 000€ 2 750m Cabourg Eclipse de Morgane 1'15"6 Attelé
19/10/18 3 Trot 19 000€ 2 400m Amiens Filou Reve 1'17"3 Attelé
19/10/18 3 Trot 21 000€ 2 400m Amiens Esther du Ganep Attelé
19/10/18 7 Trot 21 000€ 2 400m Amiens Espoir des Ventes 1'16"7 Attelé
19/10/18 5 Trot 21 000€ 2 400m Amiens Daisy de la Folie 1'15"4 Attelé
18/10/18 9 Trot 33 000€ 2 875m Enghien Soisy Elokai 1'16"5 Attelé lire

Après avoir figuré, a cédé dans la phase finale.

17/10/18 2 Trot 24 000€ 2 825m Strasbourg Diego du Houlet 1'16"0 Attelé lire

Après une longue course d'attente, est venu prendre la deuxième place pour finir, sans avoir le temps de remonter le lauréat.

17/10/18 4 Trot 22 000€ 2 800m Strasbourg Flashback Syga 1'19"1 Attelé lire

Principal animateur, a juste faibli dans les cent cinquante derniers mètres.

16/10/18 7 Trot 21 000€ 2 850m Mauquenchy Ethano de Bouteau 1'16"3 Attelé
16/10/18 D Trot 20 000€ 2 850m Mauquenchy Elisee du Pont Attelé
16/10/18 8 Trot 22 000€ 2 875m Mauquenchy Dorlic du Palais 1'15"2 Attelé
15/10/18 3 Trot 15 000€ 2 825m Le Croise Laroche Falco d'Alci 1'18"6 Attelé